sensor_id;sensor_type;location;lat;lon;timestamp;temperature;humidity
68385;DHT22;55336;43.062;25.626;2023-10-09T00:00:57;14.20;82.60
68385;DHT22;55336;43.062;25.626;2023-10-09T00:03:49;14.20;81.40
68385;DHT22;55336;43.062;25.626;2023-10-09T00:06:19;14.10;81.40
68385;DHT22;55336;43.062;25.626;2023-10-09T00:09:06;14.10;81.00
68385;DHT22;55336;43.062;25.626;2023-10-09T00:11:50;14.00;79.20
68385;DHT22;55336;43.062;25.626;2023-10-09T00:14:25;14.00;78.30
68385;DHT22;55336;43.062;25.626;2023-10-09T00:16:52;13.80;77.30
68385;DHT22;55336;43.062;25.626;2023-10-09T00:19:36;13.90;78.40
68385;DHT22;55336;43.062;25.626;2023-10-09T00:22:02;13.90;78.20
68385;DHT22;55336;43.062;25.626;2023-10-09T00:24:36;13.90;75.30
68385;DHT22;55336;43.062;25.626;2023-10-09T00:27:07;13.90;74.40
68385;DHT22;55336;43.062;25.626;2023-10-09T00:29:44;13.80;73.20
68385;DHT22;55336;43.062;25.626;2023-10-09T00:32:14;13.70;72.50
68385;DHT22;55336;43.062;25.626;2023-10-09T00:34:44;13.80;71.80
68385;DHT22;55336;43.062;25.626;2023-10-09T00:37:16;13.70;71.30
68385;DHT22;55336;43.062;25.626;2023-10-09T00:39:42;13.70;70.60
68385;DHT22;55336;43.062;25.626;2023-10-09T00:42:14;13.70;69.10
68385;DHT22;55336;43.062;25.626;2023-10-09T00:44:47;13.70;69.20
68385;DHT22;55336;43.062;25.626;2023-10-09T00:47:14;13.60;69.20
68385;DHT22;55336;43.062;25.626;2023-10-09T00:49:52;13.70;68.90
68385;DHT22;55336;43.062;25.626;2023-10-09T00:52:38;13.60;68.10
68385;DHT22;55336;43.062;25.626;2023-10-09T00:55:31;13.60;67.70
68385;DHT22;55336;43.062;25.626;2023-10-09T00:58:10;13.60;67.90
68385;DHT22;55336;43.062;25.626;2023-10-09T01:00:40;13.60;68.00
68385;DHT22;55336;43.062;25.626;2023-10-09T01:03:09;13.60;67.40
68385;DHT22;55336;43.062;25.626;2023-10-09T01:05:51;13.60;67.40
68385;DHT22;55336;43.062;25.626;2023-10-09T01:08:22;13.60;67.30
68385;DHT22;55336;43.062;25.626;2023-10-09T01:11:14;13.50;68.50
68385;DHT22;55336;43.062;25.626;2023-10-09T01:13:55;13.60;67.20
68385;DHT22;55336;43.062;25.626;2023-10-09T01:16:37;13.60;67.00
68385;DHT22;55336;43.062;25.626;2023-10-09T01:19:03;13.50;66.40
68385;DHT22;55336;43.062;25.626;2023-10-09T01:21:38;13.50;66.90
68385;DHT22;55336;43.062;25.626;2023-10-09T01:24:05;13.50;67.00
68385;DHT22;55336;43.062;25.626;2023-10-09T01:29:10;13.50;66.90
68385;DHT22;55336;43.062;25.626;2023-10-09T01:31:48;13.50;66.90
68385;DHT22;55336;43.062;25.626;2023-10-09T01:34:18;13.50;67.10
68385;DHT22;55336;43.062;25.626;2023-10-09T01:36:44;13.50;67.30
68385;DHT22;55336;43.062;25.626;2023-10-09T01:39:14;13.50;67.50
68385;DHT22;55336;43.062;25.626;2023-10-09T01:41:52;13.50;67.70
68385;DHT22;55336;43.062;25.626;2023-10-09T01:44:25;13.50;67.40
68385;DHT22;55336;43.062;25.626;2023-10-09T01:46:52;13.40;67.90
68385;DHT22;55336;43.062;25.626;2023-10-09T01:49:20;13.50;68.10
68385;DHT22;55336;43.062;25.626;2023-10-09T01:51:55;13.50;68.60
68385;DHT22;55336;43.062;25.626;2023-10-09T01:54:25;13.40;68.10
68385;DHT22;55336;43.062;25.626;2023-10-09T01:57:03;13.50;68.60
68385;DHT22;55336;43.062;25.626;2023-10-09T01:59:32;13.40;68.60
68385;DHT22;55336;43.062;25.626;2023-10-09T02:01:58;13.40;68.80
68385;DHT22;55336;43.062;25.626;2023-10-09T02:04:26;13.40;69.20
68385;DHT22;55336;43.062;25.626;2023-10-09T02:06:52;13.40;69.20
68385;DHT22;55336;43.062;25.626;2023-10-09T02:09:18;13.30;69.20
68385;DHT22;55336;43.062;25.626;2023-10-09T02:11:51;13.30;69.10
68385;DHT22;55336;43.062;25.626;2023-10-09T02:14:17;13.40;69.10
68385;DHT22;55336;43.062;25.626;2023-10-09T02:16:46;13.30;69.30
68385;DHT22;55336;43.062;25.626;2023-10-09T02:19:28;13.30;69.10
68385;DHT22;55336;43.062;25.626;2023-10-09T02:21:57;13.20;69.00
68385;DHT22;55336;43.062;25.626;2023-10-09T02:24:23;13.30;69.00
68385;DHT22;55336;43.062;25.626;2023-10-09T02:27:12;13.20;69.10
68385;DHT22;55336;43.062;25.626;2023-10-09T02:29:41;13.20;69.30
68385;DHT22;55336;43.062;25.626;2023-10-09T02:32:08;13.20;69.40
68385;DHT22;55336;43.062;25.626;2023-10-09T02:34:42;13.10;69.50
68385;DHT22;55336;43.062;25.626;2023-10-09T02:37:12;13.10;69.20
68385;DHT22;55336;43.062;25.626;2023-10-09T02:39:38;13.10;69.30
68385;DHT22;55336;43.062;25.626;2023-10-09T02:42:13;13.10;68.90
68385;DHT22;55336;43.062;25.626;2023-10-09T02:44:39;13.10;68.10
68385;DHT22;55336;43.062;25.626;2023-10-09T02:47:11;13.10;68.30
68385;DHT22;55336;43.062;25.626;2023-10-09T02:49:43;13.10;68.50
68385;DHT22;55336;43.062;25.626;2023-10-09T02:52:09;13.10;67.90
68385;DHT22;55336;43.062;25.626;2023-10-09T02:54:42;13.10;67.90
68385;DHT22;55336;43.062;25.626;2023-10-09T02:57:12;13.10;68.10
68385;DHT22;55336;43.062;25.626;2023-10-09T02:59:47;13.10;68.20
68385;DHT22;55336;43.062;25.626;2023-10-09T03:02:19;13.00;68.40
68385;DHT22;55336;43.062;25.626;2023-10-09T03:04:45;13.00;67.70
68385;DHT22;55336;43.062;25.626;2023-10-09T03:07:11;13.00;67.60
68385;DHT22;55336;43.062;25.626;2023-10-09T03:09:40;12.90;68.00
68385;DHT22;55336;43.062;25.626;2023-10-09T03:12:06;12.90;67.90
68385;DHT22;55336;43.062;25.626;2023-10-09T03:14:38;12.90;67.80
68385;DHT22;55336;43.062;25.626;2023-10-09T03:17:04;12.90;67.40
68385;DHT22;55336;43.062;25.626;2023-10-09T03:19:33;12.90;68.00
68385;DHT22;55336;43.062;25.626;2023-10-09T03:22:03;12.80;66.90
68385;DHT22;55336;43.062;25.626;2023-10-09T03:24:29;12.80;67.00
68385;DHT22;55336;43.062;25.626;2023-10-09T03:26:56;12.70;67.60
68385;DHT22;55336;43.062;25.626;2023-10-09T03:29:22;12.70;67.90
68385;DHT22;55336;43.062;25.626;2023-10-09T03:31:48;12.70;67.90
68385;DHT22;55336;43.062;25.626;2023-10-09T03:34:16;12.70;68.50
68385;DHT22;55336;43.062;25.626;2023-10-09T03:36:44;12.60;68.90
68385;DHT22;55336;43.062;25.626;2023-10-09T03:39:09;12.60;69.00
68385;DHT22;55336;43.062;25.626;2023-10-09T03:41:58;12.60;68.60
68385;DHT22;55336;43.062;25.626;2023-10-09T03:44:24;12.60;69.20
68385;DHT22;55336;43.062;25.626;2023-10-09T03:46:53;12.60;69.20
68385;DHT22;55336;43.062;25.626;2023-10-09T03:49:19;12.70;69.70
68385;DHT22;55336;43.062;25.626;2023-10-09T03:51:49;12.70;69.70
68385;DHT22;55336;43.062;25.626;2023-10-09T03:54:15;12.70;69.70
68385;DHT22;55336;43.062;25.626;2023-10-09T03:56:49;12.70;70.00
68385;DHT22;55336;43.062;25.626;2023-10-09T03:59:18;12.70;70.10
68385;DHT22;55336;43.062;25.626;2023-10-09T04:01:47;12.70;70.00
68385;DHT22;55336;43.062;25.626;2023-10-09T04:04:14;12.70;69.80
68385;DHT22;55336;43.062;25.626;2023-10-09T04:06:40;12.70;69.70
68385;DHT22;55336;43.062;25.626;2023-10-09T04:09:06;12.70;69.50
68385;DHT22;55336;43.062;25.626;2023-10-09T04:11:45;12.70;69.10
68385;DHT22;55336;43.062;25.626;2023-10-09T04:14:14;12.80;70.00
68385;DHT22;55336;43.062;25.626;2023-10-09T04:17:01;12.80;69.80
68385;DHT22;55336;43.062;25.626;2023-10-09T04:19:52;12.70;69.80
68385;DHT22;55336;43.062;25.626;2023-10-09T04:22:37;12.70;69.40
68385;DHT22;55336;43.062;25.626;2023-10-09T04:25:24;12.70;69.80
68385;DHT22;55336;43.062;25.626;2023-10-09T04:27:57;12.80;69.90
68385;DHT22;55336;43.062;25.626;2023-10-09T04:30:44;12.70;70.00
68385;DHT22;55336;43.062;25.626;2023-10-09T04:33:19;12.70;69.70
68385;DHT22;55336;43.062;25.626;2023-10-09T04:36:08;12.70;70.00
68385;DHT22;55336;43.062;25.626;2023-10-09T04:38:52;12.70;70.00
68385;DHT22;55336;43.062;25.626;2023-10-09T04:41:24;12.70;70.10
68385;DHT22;55336;43.062;25.626;2023-10-09T04:44:19;12.70;70.00
68385;DHT22;55336;43.062;25.626;2023-10-09T04:46:48;12.80;69.80
68385;DHT22;55336;43.062;25.626;2023-10-09T04:49:33;12.80;69.40
68385;DHT22;55336;43.062;25.626;2023-10-09T04:52:14;12.80;69.70
68385;DHT22;55336;43.062;25.626;2023-10-09T04:54:56;12.90;69.10
68385;DHT22;55336;43.062;25.626;2023-10-09T04:57:38;12.90;69.10
68385;DHT22;55336;43.062;25.626;2023-10-09T05:00:12;12.90;68.40
68385;DHT22;55336;43.062;25.626;2023-10-09T05:02:51;12.90;68.30
68385;DHT22;55336;43.062;25.626;2023-10-09T05:05:37;13.00;68.30
68385;DHT22;55336;43.062;25.626;2023-10-09T05:08:12;13.00;68.20
68385;DHT22;55336;43.062;25.626;2023-10-09T05:10:49;13.00;68.10
68385;DHT22;55336;43.062;25.626;2023-10-09T05:13:41;13.00;68.20
68385;DHT22;55336;43.062;25.626;2023-10-09T05:16:16;13.10;67.70
68385;DHT22;55336;43.062;25.626;2023-10-09T05:18:51;13.10;68.10
68385;DHT22;55336;43.062;25.626;2023-10-09T05:24:00;13.40;67.70
68385;DHT22;55336;43.062;25.626;2023-10-09T05:26:38;13.50;66.90
68385;DHT22;55336;43.062;25.626;2023-10-09T05:29:18;13.60;65.50
68385;DHT22;55336;43.062;25.626;2023-10-09T05:31:59;13.70;65.70
68385;DHT22;55336;43.062;25.626;2023-10-09T05:34:41;13.70;65.50
68385;DHT22;55336;43.062;25.626;2023-10-09T05:37:29;13.80;65.80
68385;DHT22;55336;43.062;25.626;2023-10-09T05:40:08;13.80;65.70
68385;DHT22;55336;43.062;25.626;2023-10-09T05:42:44;13.90;65.40
68385;DHT22;55336;43.062;25.626;2023-10-09T05:45:13;13.80;64.40
68385;DHT22;55336;43.062;25.626;2023-10-09T05:47:43;14.00;66.00
68385;DHT22;55336;43.062;25.626;2023-10-09T05:50:27;14.10;64.10
68385;DHT22;55336;43.062;25.626;2023-10-09T05:52:56;14.20;64.40
68385;DHT22;55336;43.062;25.626;2023-10-09T05:55:37;14.20;64.60
68385;DHT22;55336;43.062;25.626;2023-10-09T05:58:15;14.20;63.60
68385;DHT22;55336;43.062;25.626;2023-10-09T06:01:12;14.30;63.70
68385;DHT22;55336;43.062;25.626;2023-10-09T06:07:02;14.30;64.30
68385;DHT22;55336;43.062;25.626;2023-10-09T06:10:13;14.70;64.00
68385;DHT22;55336;43.062;25.626;2023-10-09T06:13:01;14.50;62.90
68385;DHT22;55336;43.062;25.626;2023-10-09T06:15:29;14.40;62.90
68385;DHT22;55336;43.062;25.626;2023-10-09T06:18:09;14.40;64.70
68385;DHT22;55336;43.062;25.626;2023-10-09T06:20:58;14.40;65.30
68385;DHT22;55336;43.062;25.626;2023-10-09T06:23:56;14.50;64.30
68385;DHT22;55336;43.062;25.626;2023-10-09T06:26:35;14.50;64.60
68385;DHT22;55336;43.062;25.626;2023-10-09T06:29:00;14.50;63.50
68385;DHT22;55336;43.062;25.626;2023-10-09T06:31:42;14.60;63.40
68385;DHT22;55336;43.062;25.626;2023-10-09T06:34:26;14.60;64.40
68385;DHT22;55336;43.062;25.626;2023-10-09T06:36:59;14.70;65.40
68385;DHT22;55336;43.062;25.626;2023-10-09T06:39:42;14.70;64.40
68385;DHT22;55336;43.062;25.626;2023-10-09T06:42:37;14.60;63.80
68385;DHT22;55336;43.062;25.626;2023-10-09T06:45:06;14.50;63.50
68385;DHT22;55336;43.062;25.626;2023-10-09T06:47:55;14.60;64.10
68385;DHT22;55336;43.062;25.626;2023-10-09T06:50:21;14.60;65.10
68385;DHT22;55336;43.062;25.626;2023-10-09T06:52:50;14.70;63.90
68385;DHT22;55336;43.062;25.626;2023-10-09T06:55:23;14.80;63.90
68385;DHT22;55336;43.062;25.626;2023-10-09T06:57:58;14.90;63.00
68385;DHT22;55336;43.062;25.626;2023-10-09T07:00:27;15.00;62.70
68385;DHT22;55336;43.062;25.626;2023-10-09T07:03:12;15.10;62.30
68385;DHT22;55336;43.062;25.626;2023-10-09T07:05:38;15.30;64.50
68385;DHT22;55336;43.062;25.626;2023-10-09T07:08:23;15.30;61.70
68385;DHT22;55336;43.062;25.626;2023-10-09T07:11:03;15.40;61.00
68385;DHT22;55336;43.062;25.626;2023-10-09T07:13:52;15.50;60.70
68385;DHT22;55336;43.062;25.626;2023-10-09T07:16:20;15.50;60.10
68385;DHT22;55336;43.062;25.626;2023-10-09T07:19:06;15.50;59.50
68385;DHT22;55336;43.062;25.626;2023-10-09T07:21:37;15.50;60.50
68385;DHT22;55336;43.062;25.626;2023-10-09T07:24:07;15.50;59.60
68385;DHT22;55336;43.062;25.626;2023-10-09T07:26:42;15.60;60.40
68385;DHT22;55336;43.062;25.626;2023-10-09T07:29:20;16.00;59.50
68385;DHT22;55336;43.062;25.626;2023-10-09T07:31:51;16.40;58.10
68385;DHT22;55336;43.062;25.626;2023-10-09T07:34:23;16.50;57.60
68385;DHT22;55336;43.062;25.626;2023-10-09T07:37:23;17.00;56.10
68385;DHT22;55336;43.062;25.626;2023-10-09T07:39:50;17.60;55.70
68385;DHT22;55336;43.062;25.626;2023-10-09T07:42:25;18.30;53.40
68385;DHT22;55336;43.062;25.626;2023-10-09T07:45:17;18.60;52.20
68385;DHT22;55336;43.062;25.626;2023-10-09T07:47:48;18.80;52.00
68385;DHT22;55336;43.062;25.626;2023-10-09T07:50:28;18.80;51.00
68385;DHT22;55336;43.062;25.626;2023-10-09T07:53:06;19.20;49.90
68385;DHT22;55336;43.062;25.626;2023-10-09T07:55:51;18.90;49.60
68385;DHT22;55336;43.062;25.626;2023-10-09T07:58:35;19.00;50.60
68385;DHT22;55336;43.062;25.626;2023-10-09T08:01:11;19.60;49.20
68385;DHT22;55336;43.062;25.626;2023-10-09T08:04:02;20.10;48.50
68385;DHT22;55336;43.062;25.626;2023-10-09T08:06:39;20.60;47.10
68385;DHT22;55336;43.062;25.626;2023-10-09T08:09:05;21.00;45.60
68385;DHT22;55336;43.062;25.626;2023-10-09T08:14:08;21.20;45.00
68385;DHT22;55336;43.062;25.626;2023-10-09T08:16:46;21.20;44.80
68385;DHT22;55336;43.062;25.626;2023-10-09T08:19:11;20.20;48.70
68385;DHT22;55336;43.062;25.626;2023-10-09T08:21:56;21.10;46.00
68385;DHT22;55336;43.062;25.626;2023-10-09T08:24:45;21.20;45.80
68385;DHT22;55336;43.062;25.626;2023-10-09T08:27:24;21.90;44.20
68385;DHT22;55336;43.062;25.626;2023-10-09T08:29:56;21.70;43.00
68385;DHT22;55336;43.062;25.626;2023-10-09T08:32:40;22.10;42.20
68385;DHT22;55336;43.062;25.626;2023-10-09T08:35:08;21.80;42.60
68385;DHT22;55336;43.062;25.626;2023-10-09T08:37:52;22.20;43.20
68385;DHT22;55336;43.062;25.626;2023-10-09T08:40:19;22.60;42.30
68385;DHT22;55336;43.062;25.626;2023-10-09T08:42:47;22.90;41.40
68385;DHT22;55336;43.062;25.626;2023-10-09T08:45:15;23.00;40.40
68385;DHT22;55336;43.062;25.626;2023-10-09T08:47:42;23.00;40.40
68385;DHT22;55336;43.062;25.626;2023-10-09T08:50:07;22.40;43.20
68385;DHT22;55336;43.062;25.626;2023-10-09T08:52:38;22.30;43.60
68385;DHT22;55336;43.062;25.626;2023-10-09T08:55:04;22.30;43.50
68385;DHT22;55336;43.062;25.626;2023-10-09T08:57:31;21.80;43.00
68385;DHT22;55336;43.062;25.626;2023-10-09T08:59:56;21.10;45.70
68385;DHT22;55336;43.062;25.626;2023-10-09T09:02:22;21.10;46.40
68385;DHT22;55336;43.062;25.626;2023-10-09T09:04:48;20.90;46.80
68385;DHT22;55336;43.062;25.626;2023-10-09T09:07:25;21.20;45.60
68385;DHT22;55336;43.062;25.626;2023-10-09T09:09:58;21.40;45.10
68385;DHT22;55336;43.062;25.626;2023-10-09T09:12:30;21.60;43.90
68385;DHT22;55336;43.062;25.626;2023-10-09T09:15:03;22.00;43.20
68385;DHT22;55336;43.062;25.626;2023-10-09T09:17:32;21.50;44.60
68385;DHT22;55336;43.062;25.626;2023-10-09T09:19:58;21.10;45.70
68385;DHT22;55336;43.062;25.626;2023-10-09T09:22:24;20.80;46.40
68385;DHT22;55336;43.062;25.626;2023-10-09T09:24:58;21.80;46.30
68385;DHT22;55336;43.062;25.626;2023-10-09T09:27:46;22.40;43.80
68385;DHT22;55336;43.062;25.626;2023-10-09T09:30:25;22.70;44.10
68385;DHT22;55336;43.062;25.626;2023-10-09T09:32:52;22.90;44.10
68385;DHT22;55336;43.062;25.626;2023-10-09T09:35:36;21.60;45.40
68385;DHT22;55336;43.062;25.626;2023-10-09T09:38:02;22.50;44.30
68385;DHT22;55336;43.062;25.626;2023-10-09T09:40:31;23.00;43.50
68385;DHT22;55336;43.062;25.626;2023-10-09T09:42:58;22.80;43.10
68385;DHT22;55336;43.062;25.626;2023-10-09T09:45:39;22.40;43.10
68385;DHT22;55336;43.062;25.626;2023-10-09T09:48:12;23.10;42.80
68385;DHT22;55336;43.062;25.626;2023-10-09T09:50:41;23.70;40.70
68385;DHT22;55336;43.062;25.626;2023-10-09T09:53:13;23.60;41.50
68385;DHT22;55336;43.062;25.626;2023-10-09T09:55:44;23.30;40.90
68385;DHT22;55336;43.062;25.626;2023-10-09T09:58:18;23.80;40.60
68385;DHT22;55336;43.062;25.626;2023-10-09T10:00:52;24.50;39.20
68385;DHT22;55336;43.062;25.626;2023-10-09T10:03:29;24.60;38.80
68385;DHT22;55336;43.062;25.626;2023-10-09T10:05:58;24.90;37.80
68385;DHT22;55336;43.062;25.626;2023-10-09T10:08:25;24.80;37.60
68385;DHT22;55336;43.062;25.626;2023-10-09T10:11:00;24.40;39.30
68385;DHT22;55336;43.062;25.626;2023-10-09T10:16:11;24.60;39.30
68385;DHT22;55336;43.062;25.626;2023-10-09T10:19:04;24.80;37.60
68385;DHT22;55336;43.062;25.626;2023-10-09T10:21:47;24.80;38.00
68385;DHT22;55336;43.062;25.626;2023-10-09T10:27:16;24.90;37.90
68385;DHT22;55336;43.062;25.626;2023-10-09T10:35:16;24.50;37.90
68385;DHT22;55336;43.062;25.626;2023-10-09T10:37:46;23.90;39.10
68385;DHT22;55336;43.062;25.626;2023-10-09T10:40:27;23.90;39.20
68385;DHT22;55336;43.062;25.626;2023-10-09T10:43:15;24.10;39.70
68385;DHT22;55336;43.062;25.626;2023-10-09T10:48:35;24.10;39.30
68385;DHT22;55336;43.062;25.626;2023-10-09T10:51:04;24.30;39.40
68385;DHT22;55336;43.062;25.626;2023-10-09T10:53:30;23.70;39.80
68385;DHT22;55336;43.062;25.626;2023-10-09T10:56:13;24.00;39.40
68385;DHT22;55336;43.062;25.626;2023-10-09T10:58:39;24.80;38.30
68385;DHT22;55336;43.062;25.626;2023-10-09T11:01:19;24.80;38.00
68385;DHT22;55336;43.062;25.626;2023-10-09T11:03:44;24.80;38.00
68385;DHT22;55336;43.062;25.626;2023-10-09T11:06:26;24.80;37.40
68385;DHT22;55336;43.062;25.626;2023-10-09T11:09:07;25.40;36.50
68385;DHT22;55336;43.062;25.626;2023-10-09T11:11:56;25.80;35.40
68385;DHT22;55336;43.062;25.626;2023-10-09T11:14:47;25.80;34.30
68385;DHT22;55336;43.062;25.626;2023-10-09T11:17:34;25.80;36.70
68385;DHT22;55336;43.062;25.626;2023-10-09T11:20:04;26.20;34.50
68385;DHT22;55336;43.062;25.626;2023-10-09T11:22:50;26.50;35.80
68385;DHT22;55336;43.062;25.626;2023-10-09T11:25:35;26.30;35.40
68385;DHT22;55336;43.062;25.626;2023-10-09T11:28:03;26.00;35.40
68385;DHT22;55336;43.062;25.626;2023-10-09T11:30:48;26.00;35.50
68385;DHT22;55336;43.062;25.626;2023-10-09T11:33:21;25.40;36.30
68385;DHT22;55336;43.062;25.626;2023-10-09T11:35:56;25.40;36.60
68385;DHT22;55336;43.062;25.626;2023-10-09T11:38:25;24.90;36.80
68385;DHT22;55336;43.062;25.626;2023-10-09T11:40:54;25.70;37.40
68385;DHT22;55336;43.062;25.626;2023-10-09T11:43:20;25.60;34.90
68385;DHT22;55336;43.062;25.626;2023-10-09T11:46:11;24.90;37.00
68385;DHT22;55336;43.062;25.626;2023-10-09T11:48:37;25.20;35.80
68385;DHT22;55336;43.062;25.626;2023-10-09T11:51:15;25.50;35.50
68385;DHT22;55336;43.062;25.626;2023-10-09T11:53:44;25.10;37.70
68385;DHT22;55336;43.062;25.626;2023-10-09T11:56:16;24.70;38.20
68385;DHT22;55336;43.062;25.626;2023-10-09T11:58:49;24.40;39.10
68385;DHT22;55336;43.062;25.626;2023-10-09T12:01:17;25.00;36.50
68385;DHT22;55336;43.062;25.626;2023-10-09T12:03:45;24.80;36.90
68385;DHT22;55336;43.062;25.626;2023-10-09T12:06:18;24.90;38.00
68385;DHT22;55336;43.062;25.626;2023-10-09T12:08:55;25.00;35.90
68385;DHT22;55336;43.062;25.626;2023-10-09T12:11:23;25.40;35.10
68385;DHT22;55336;43.062;25.626;2023-10-09T12:13:54;25.80;34.30
68385;DHT22;55336;43.062;25.626;2023-10-09T12:16:26;25.90;34.40
68385;DHT22;55336;43.062;25.626;2023-10-09T12:18:56;25.70;36.50
68385;DHT22;55336;43.062;25.626;2023-10-09T12:21:22;25.60;33.80
68385;DHT22;55336;43.062;25.626;2023-10-09T12:23:49;25.40;35.70
68385;DHT22;55336;43.062;25.626;2023-10-09T12:26:14;24.60;36.60
68385;DHT22;55336;43.062;25.626;2023-10-09T12:28:40;24.20;37.70
68385;DHT22;55336;43.062;25.626;2023-10-09T12:31:14;24.40;37.10
68385;DHT22;55336;43.062;25.626;2023-10-09T12:33:46;24.60;37.40
68385;DHT22;55336;43.062;25.626;2023-10-09T12:36:13;24.30;37.60
68385;DHT22;55336;43.062;25.626;2023-10-09T12:38:45;24.60;36.50
68385;DHT22;55336;43.062;25.626;2023-10-09T12:41:15;24.00;39.20
68385;DHT22;55336;43.062;25.626;2023-10-09T12:46:44;24.00;36.70
68385;DHT22;55336;43.062;25.626;2023-10-09T12:49:19;24.50;37.60
68385;DHT22;55336;43.062;25.626;2023-10-09T12:51:51;24.80;36.30
68385;DHT22;55336;43.062;25.626;2023-10-09T12:54:17;24.20;38.20
68385;DHT22;55336;43.062;25.626;2023-10-09T12:56:45;24.30;37.70
68385;DHT22;55336;43.062;25.626;2023-10-09T12:59:14;24.10;38.50
68385;DHT22;55336;43.062;25.626;2023-10-09T13:01:40;24.00;39.70
68385;DHT22;55336;43.062;25.626;2023-10-09T13:04:17;23.90;38.90
68385;DHT22;55336;43.062;25.626;2023-10-09T13:06:44;24.40;37.20
68385;DHT22;55336;43.062;25.626;2023-10-09T13:09:13;24.30;38.10
68385;DHT22;55336;43.062;25.626;2023-10-09T13:11:39;24.40;39.30
68385;DHT22;55336;43.062;25.626;2023-10-09T13:14:08;24.60;36.40
68385;DHT22;55336;43.062;25.626;2023-10-09T13:16:43;25.20;37.30
68385;DHT22;55336;43.062;25.626;2023-10-09T13:19:08;25.50;35.40
68385;DHT22;55336;43.062;25.626;2023-10-09T13:21:37;25.60;34.00
68385;DHT22;55336;43.062;25.626;2023-10-09T13:24:05;26.00;34.00
68385;DHT22;55336;43.062;25.626;2023-10-09T13:26:38;26.20;33.70
68385;DHT22;55336;43.062;25.626;2023-10-09T13:29:04;26.10;33.00
68385;DHT22;55336;43.062;25.626;2023-10-09T13:31:34;26.30;34.00
68385;DHT22;55336;43.062;25.626;2023-10-09T13:34:04;25.80;34.20
68385;DHT22;55336;43.062;25.626;2023-10-09T13:36:32;25.10;33.90
68385;DHT22;55336;43.062;25.626;2023-10-09T13:38:59;25.40;33.00
68385;DHT22;55336;43.062;25.626;2023-10-09T13:41:52;25.50;32.10
68385;DHT22;55336;43.062;25.626;2023-10-09T13:44:32;25.10;32.90
68385;DHT22;55336;43.062;25.626;2023-10-09T13:47:00;25.20;33.90
68385;DHT22;55336;43.062;25.626;2023-10-09T13:49:26;25.20;33.90
68385;DHT22;55336;43.062;25.626;2023-10-09T13:51:55;25.20;31.80
68385;DHT22;55336;43.062;25.626;2023-10-09T13:54:22;25.50;32.50
68385;DHT22;55336;43.062;25.626;2023-10-09T13:57:05;24.50;33.90
68385;DHT22;55336;43.062;25.626;2023-10-09T13:59:31;24.60;34.30
68385;DHT22;55336;43.062;25.626;2023-10-09T14:01:57;25.00;34.10
68385;DHT22;55336;43.062;25.626;2023-10-09T14:04:24;25.00;32.60
68385;DHT22;55336;43.062;25.626;2023-10-09T14:06:51;25.00;33.20
68385;DHT22;55336;43.062;25.626;2023-10-09T14:09:31;25.00;32.70
68385;DHT22;55336;43.062;25.626;2023-10-09T14:11:57;25.00;33.90
68385;DHT22;55336;43.062;25.626;2023-10-09T14:14:34;25.10;32.50
68385;DHT22;55336;43.062;25.626;2023-10-09T14:17:00;24.90;32.20
68385;DHT22;55336;43.062;25.626;2023-10-09T14:19:25;25.00;32.90
68385;DHT22;55336;43.062;25.626;2023-10-09T14:21:52;24.70;34.80
68385;DHT22;55336;43.062;25.626;2023-10-09T14:24:18;24.40;34.80
68385;DHT22;55336;43.062;25.626;2023-10-09T14:26:45;24.20;35.60
68385;DHT22;55336;43.062;25.626;2023-10-09T14:29:12;24.10;34.10
68385;DHT22;55336;43.062;25.626;2023-10-09T14:31:44;23.60;36.10
68385;DHT22;55336;43.062;25.626;2023-10-09T14:34:14;23.40;37.30
68385;DHT22;55336;43.062;25.626;2023-10-09T14:36:40;23.40;37.30
68385;DHT22;55336;43.062;25.626;2023-10-09T14:39:09;23.40;35.90
68385;DHT22;55336;43.062;25.626;2023-10-09T14:41:38;23.60;34.10
68385;DHT22;55336;43.062;25.626;2023-10-09T14:44:05;24.00;32.80
68385;DHT22;55336;43.062;25.626;2023-10-09T14:46:31;24.40;32.80
68385;DHT22;55336;43.062;25.626;2023-10-09T14:49:06;24.20;32.30
68385;DHT22;55336;43.062;25.626;2023-10-09T14:51:43;24.50;33.70
68385;DHT22;55336;43.062;25.626;2023-10-09T14:54:21;24.00;32.10
68385;DHT22;55336;43.062;25.626;2023-10-09T14:56:53;24.00;31.90
68385;DHT22;55336;43.062;25.626;2023-10-09T14:59:20;23.70;32.60
68385;DHT22;55336;43.062;25.626;2023-10-09T15:01:50;23.00;32.20
68385;DHT22;55336;43.062;25.626;2023-10-09T15:04:19;22.50;32.90
68385;DHT22;55336;43.062;25.626;2023-10-09T15:06:45;22.20;34.60
68385;DHT22;55336;43.062;25.626;2023-10-09T15:09:14;21.90;34.10
68385;DHT22;55336;43.062;25.626;2023-10-09T15:11:47;21.70;33.90
68385;DHT22;55336;43.062;25.626;2023-10-09T15:14:14;21.40;34.50
68385;DHT22;55336;43.062;25.626;2023-10-09T15:16:40;21.10;35.00
68385;DHT22;55336;43.062;25.626;2023-10-09T15:19:08;20.90;35.60
68385;DHT22;55336;43.062;25.626;2023-10-09T15:21:36;20.50;36.60
68385;DHT22;55336;43.062;25.626;2023-10-09T15:24:12;20.30;36.10
68385;DHT22;55336;43.062;25.626;2023-10-09T15:26:59;20.10;36.30
68385;DHT22;55336;43.062;25.626;2023-10-09T15:29:31;19.90;38.10
68385;DHT22;55336;43.062;25.626;2023-10-09T15:31:59;19.60;38.30
68385;DHT22;55336;43.062;25.626;2023-10-09T15:34:39;19.20;43.60
68385;DHT22;55336;43.062;25.626;2023-10-09T15:37:06;18.80;46.60
68385;DHT22;55336;43.062;25.626;2023-10-09T15:39:35;18.40;49.40
68385;DHT22;55336;43.062;25.626;2023-10-09T15:42:01;18.20;48.40
68385;DHT22;55336;43.062;25.626;2023-10-09T15:44:29;17.80;50.70
68385;DHT22;55336;43.062;25.626;2023-10-09T15:46:59;17.50;51.70
68385;DHT22;55336;43.062;25.626;2023-10-09T15:49:28;17.20;53.50
68385;DHT22;55336;43.062;25.626;2023-10-09T15:51:55;16.90;53.50
68385;DHT22;55336;43.062;25.626;2023-10-09T15:54:21;16.70;54.50
68385;DHT22;55336;43.062;25.626;2023-10-09T15:56:47;16.30;55.50
68385;DHT22;55336;43.062;25.626;2023-10-09T15:59:13;16.20;55.90
68385;DHT22;55336;43.062;25.626;2023-10-09T16:01:38;15.90;57.60
68385;DHT22;55336;43.062;25.626;2023-10-09T16:04:08;15.70;58.20
68385;DHT22;55336;43.062;25.626;2023-10-09T16:06:35;15.50;57.90
68385;DHT22;55336;43.062;25.626;2023-10-09T16:09:05;15.20;60.40
68385;DHT22;55336;43.062;25.626;2023-10-09T16:11:31;15.10;59.80
68385;DHT22;55336;43.062;25.626;2023-10-09T16:14:00;15.00;60.00
68385;DHT22;55336;43.062;25.626;2023-10-09T16:16:26;14.80;61.00
68385;DHT22;55336;43.062;25.626;2023-10-09T16:18:52;14.70;61.40
68385;DHT22;55336;43.062;25.626;2023-10-09T16:21:18;14.50;62.50